createdAt,value
2016-09-30T00:00:15.167Z,1.10
2016-09-30T00:01:15.679Z,0.60
2016-09-30T00:02:16.196Z,0.10
2016-09-30T00:03:16.703Z,0.50
2016-09-30T00:04:17.217Z,0.40
2016-09-30T00:05:17.732Z,0.30
2016-09-30T00:06:18.242Z,0.30
2016-09-30T00:07:18.762Z,0.20
2016-09-30T00:08:19.270Z,0.00
2016-09-30T00:09:19.786Z,0.80
2016-09-30T00:10:20.310Z,0.10
2016-09-30T00:11:20.817Z,0.00
2016-09-30T00:12:21.329Z,0.50
2016-09-30T00:13:23.344Z,0.40
2016-09-30T00:14:22.354Z,0.10
2016-09-30T00:15:22.868Z,0.00
2016-09-30T00:16:23.392Z,0.20
2016-09-30T00:17:23.887Z,0.00
2016-09-30T00:18:24.395Z,0.10
2016-09-30T00:19:24.911Z,0.50
2016-09-30T00:20:25.421Z,0.00
2016-09-30T00:21:25.929Z,0.00
2016-09-30T00:22:26.441Z,0.00
2016-09-30T00:23:26.977Z,0.10
2016-09-30T00:24:27.469Z,0.20
2016-09-30T00:25:28.006Z,0.10
2016-09-30T00:26:28.499Z,0.10
2016-09-30T00:27:29.018Z,0.00
2016-09-30T00:28:29.526Z,0.00
2016-09-30T00:29:30.035Z,0.00
2016-09-30T00:30:30.701Z,0.10
2016-09-30T00:31:31.058Z,0.00
2016-09-30T00:32:31.573Z,0.00
2016-09-30T00:33:32.086Z,0.10
2016-09-30T00:34:32.594Z,0.10
2016-09-30T00:35:33.110Z,0.20
2016-09-30T00:36:33.627Z,0.40
2016-09-30T00:37:34.128Z,0.40
2016-09-30T00:38:34.639Z,0.10
2016-09-30T00:39:35.302Z,0.30
2016-09-30T00:40:35.660Z,0.40
2016-09-30T00:41:36.173Z,0.40
2016-09-30T00:42:36.685Z,0.10
2016-09-30T00:43:37.191Z,0.00
2016-09-30T00:44:37.705Z,0.10
2016-09-30T00:45:38.222Z,0.00
2016-09-30T00:46:38.739Z,0.00
2016-09-30T00:47:39.278Z,0.30
2016-09-30T00:48:39.772Z,0.50
2016-09-30T00:49:40.288Z,0.10
2016-09-30T00:50:40.815Z,0.00
2016-09-30T00:51:41.307Z,0.40
2016-09-30T00:52:41.819Z,0.20
2016-09-30T00:53:42.333Z,0.30
2016-09-30T00:54:42.855Z,0.40
2016-09-30T00:55:43.349Z,0.40
2016-09-30T00:56:43.860Z,0.20
2016-09-30T00:57:44.374Z,0.40
2016-09-30T00:58:44.885Z,0.10
2016-09-30T00:59:45.406Z,0.30
2016-09-30T01:00:45.915Z,0.10
2016-09-30T01:01:46.416Z,0.70
2016-09-30T01:02:46.925Z,0.30
2016-09-30T01:03:47.455Z,0.20
2016-09-30T01:04:47.950Z,0.40
2016-09-30T01:05:48.462Z,0.20
2016-09-30T01:06:48.973Z,0.10
2016-09-30T01:07:49.487Z,0.10
2016-09-30T01:08:49.997Z,0.10
2016-09-30T01:09:50.510Z,0.00
2016-09-30T01:10:51.021Z,0.00
2016-09-30T01:11:51.530Z,0.00
2016-09-30T01:12:52.043Z,0.00
2016-09-30T01:13:52.583Z,0.00
2016-09-30T01:14:53.069Z,0.00
2016-09-30T01:15:53.580Z,0.00
2016-09-30T01:16:54.092Z,0.20
2016-09-30T01:17:54.605Z,0.20
2016-09-30T01:18:55.114Z,0.00
2016-09-30T01:19:55.625Z,0.00
2016-09-30T01:20:56.138Z,0.00
2016-09-30T01:21:56.648Z,0.00
2016-09-30T01:22:57.314Z,0.00
2016-09-30T01:23:57.681Z,0.30
2016-09-30T01:24:58.203Z,0.10
2016-09-30T01:25:58.721Z,0.20
2016-09-30T01:26:59.227Z,0.20
2016-09-30T01:27:59.738Z,0.20
2016-09-30T01:29:00.256Z,0.40
2016-09-30T01:30:00.772Z,0.60
2016-09-30T01:31:01.284Z,0.60
2016-09-30T01:32:01.790Z,0.50
2016-09-30T01:33:02.306Z,0.60
2016-09-30T01:34:02.970Z,0.70
2016-09-30T01:35:03.339Z,1.30
2016-09-30T01:36:03.837Z,1.70
2016-09-30T01:37:04.345Z,1.60
2016-09-30T01:38:04.858Z,1.90
2016-09-30T01:39:05.372Z,1.80
2016-09-30T01:40:05.888Z,1.80
2016-09-30T01:41:06.403Z,1.70
2016-09-30T01:42:06.911Z,1.10
2016-09-30T01:43:07.421Z,0.60
2016-09-30T01:44:07.941Z,0.90
2016-09-30T01:45:08.597Z,0.60
2016-09-30T01:46:08.961Z,1.20
2016-09-30T01:47:09.471Z,1.10
2016-09-30T01:48:09.984Z,1.50
2016-09-30T01:49:10.495Z,1.90
2016-09-30T01:50:11.008Z,1.70
2016-09-30T01:51:11.518Z,1.50
2016-09-30T01:52:12.034Z,1.90
2016-09-30T01:53:12.552Z,0.80
2016-09-30T01:54:13.077Z,1.20
2016-09-30T01:55:13.601Z,1.10
2016-09-30T01:56:14.099Z,0.70
2016-09-30T01:57:14.595Z,0.60
2016-09-30T01:58:15.110Z,0.60
2016-09-30T01:59:15.618Z,0.10
2016-09-30T02:00:16.133Z,0.20
2016-09-30T02:01:16.658Z,0.20
2016-09-30T02:02:17.165Z,0.30
2016-09-30T02:03:17.677Z,0.00
2016-09-30T02:04:18.342Z,0.30
2016-09-30T02:05:18.699Z,0.50
2016-09-30T02:06:19.217Z,0.60
2016-09-30T02:07:19.725Z,0.60
2016-09-30T02:08:20.235Z,0.30
2016-09-30T02:09:20.756Z,0.20
2016-09-30T02:10:21.260Z,0.60
2016-09-30T02:11:21.803Z,0.50
2016-09-30T02:12:22.280Z,0.40
2016-09-30T02:13:22.796Z,0.80
2016-09-30T02:14:23.309Z,0.90
2016-09-30T02:15:23.821Z,0.60
2016-09-30T02:16:24.332Z,0.40
2016-09-30T02:17:24.839Z,0.10
2016-09-30T02:18:25.359Z,0.10
2016-09-30T02:19:26.614Z,0.00
2016-09-30T02:20:26.375Z,0.00
2016-09-30T02:21:26.888Z,0.00
2016-09-30T02:22:27.397Z,0.00
2016-09-30T02:23:27.913Z,0.00
2016-09-30T02:24:28.422Z,0.00
2016-09-30T02:25:28.934Z,0.00
2016-09-30T02:26:29.444Z,0.00
2016-09-30T02:27:29.955Z,0.00
2016-09-30T02:28:30.464Z,0.00
2016-09-30T02:29:30.973Z,0.00
2016-09-30T02:30:31.488Z,0.00
2016-09-30T02:31:31.999Z,0.10
2016-09-30T02:32:32.506Z,0.10
2016-09-30T02:33:33.027Z,0.10
2016-09-30T02:34:33.533Z,0.00
2016-09-30T02:35:34.049Z,0.10
2016-09-30T02:36:34.565Z,0.00
2016-09-30T02:37:35.098Z,0.20
2016-09-30T02:38:35.616Z,0.20
2016-09-30T02:39:36.108Z,0.20
2016-09-30T02:40:36.619Z,0.20
2016-09-30T02:41:37.137Z,0.20
2016-09-30T02:42:37.671Z,0.50
2016-09-30T02:43:38.160Z,0.20
2016-09-30T02:44:38.670Z,0.20
2016-09-30T02:45:39.181Z,0.30
2016-09-30T02:46:39.697Z,0.80
2016-09-30T02:47:40.359Z,0.90
2016-09-30T02:48:40.717Z,0.90
2016-09-30T02:49:44.233Z,1.00
2016-09-30T02:50:41.738Z,0.60
2016-09-30T02:51:42.253Z,0.40
2016-09-30T02:52:42.769Z,0.60
2016-09-30T02:53:43.307Z,0.30
2016-09-30T02:54:43.797Z,0.80
2016-09-30T02:55:44.311Z,0.60
2016-09-30T02:56:44.817Z,0.40
2016-09-30T02:57:45.327Z,0.50
2016-09-30T02:58:45.862Z,0.60
2016-09-30T02:59:46.350Z,0.60
2016-09-30T03:00:46.858Z,0.60
2016-09-30T03:01:47.382Z,0.30
2016-09-30T03:02:47.885Z,0.60
2016-09-30T03:03:48.397Z,0.20
2016-09-30T03:04:48.934Z,0.20
2016-09-30T03:05:49.418Z,0.00
2016-09-30T03:06:49.947Z,0.00
2016-09-30T03:07:50.615Z,0.00
2016-09-30T03:08:50.979Z,0.00
2016-09-30T03:09:51.485Z,0.00
2016-09-30T03:10:51.986Z,0.00
2016-09-30T03:11:52.501Z,0.00
2016-09-30T03:12:53.029Z,0.00
2016-09-30T03:13:53.534Z,0.00
2016-09-30T03:14:54.047Z,0.10
2016-09-30T03:15:54.541Z,0.00
2016-09-30T03:16:55.082Z,0.00
2016-09-30T03:17:55.575Z,0.00
2016-09-30T03:18:56.263Z,0.00
2016-09-30T03:19:56.751Z,0.10
2016-09-30T03:20:57.136Z,0.10
2016-09-30T03:21:57.629Z,0.10
2016-09-30T03:22:58.140Z,0.10
2016-09-30T03:23:58.648Z,0.00
2016-09-30T03:24:59.160Z,0.00
2016-09-30T03:25:59.681Z,0.00
2016-09-30T03:27:00.183Z,0.00
2016-09-30T03:28:00.695Z,0.00
2016-09-30T03:29:01.208Z,0.00
2016-09-30T03:30:01.716Z,0.00
2016-09-30T03:31:02.244Z,0.00
2016-09-30T03:32:02.743Z,0.20
2016-09-30T03:33:03.254Z,0.00
2016-09-30T03:34:03.912Z,0.10
2016-09-30T03:35:04.300Z,0.10
2016-09-30T03:36:04.794Z,0.00
2016-09-30T03:37:05.309Z,0.00
2016-09-30T03:38:05.815Z,0.00
2016-09-30T03:39:06.355Z,0.00
2016-09-30T03:40:06.838Z,0.10
2016-09-30T03:41:07.349Z,0.00
2016-09-30T03:42:07.865Z,0.00
2016-09-30T03:43:08.373Z,0.00
2016-09-30T03:44:08.886Z,0.00
2016-09-30T03:45:09.395Z,0.00
2016-09-30T03:46:09.907Z,0.00
2016-09-30T03:47:10.424Z,0.00
2016-09-30T03:48:10.936Z,0.00
2016-09-30T03:49:11.441Z,0.00
2016-09-30T03:50:11.957Z,0.00
2016-09-30T03:51:12.466Z,0.00
2016-09-30T03:52:12.978Z,0.00
2016-09-30T03:53:13.493Z,0.00
2016-09-30T03:54:14.013Z,0.00
2016-09-30T03:55:14.521Z,0.00
2016-09-30T03:56:15.035Z,0.10
2016-09-30T03:57:15.545Z,0.40
2016-09-30T03:58:16.065Z,0.30
2016-09-30T03:59:16.569Z,0.30
2016-09-30T04:00:17.079Z,0.00
2016-09-30T04:01:17.592Z,0.00
2016-09-30T04:02:18.107Z,0.00
2016-09-30T04:03:18.652Z,0.00
2016-09-30T04:04:19.269Z,0.00
2016-09-30T04:05:19.632Z,0.00
2016-09-30T04:06:20.143Z,0.00
2016-09-30T04:07:20.652Z,0.00
2016-09-30T04:08:21.163Z,0.00
2016-09-30T04:09:21.676Z,0.00
2016-09-30T04:10:22.186Z,0.00
2016-09-30T04:11:22.702Z,0.00
2016-09-30T04:12:23.368Z,0.00
2016-09-30T04:13:23.874Z,0.00
2016-09-30T04:14:24.233Z,0.00
2016-09-30T04:15:24.755Z,0.00
2016-09-30T04:16:25.267Z,0.00
2016-09-30T04:17:25.787Z,0.00
2016-09-30T04:18:26.294Z,0.00
2016-09-30T04:19:26.798Z,0.00
2016-09-30T04:20:27.308Z,0.00
2016-09-30T04:21:27.831Z,0.00
2016-09-30T04:22:28.330Z,0.00
2016-09-30T04:23:28.843Z,0.00
2016-09-30T04:24:29.354Z,0.00
2016-09-30T04:25:29.865Z,0.00
2016-09-30T04:26:30.373Z,0.00
2016-09-30T04:27:30.885Z,0.00
2016-09-30T04:28:31.396Z,0.00
2016-09-30T04:29:31.912Z,0.00
2016-09-30T04:30:32.429Z,0.00
2016-09-30T04:31:32.956Z,0.00
2016-09-30T04:32:33.465Z,0.00
2016-09-30T04:33:33.969Z,0.00
2016-09-30T04:34:34.480Z,0.00
2016-09-30T04:35:35.005Z,0.00
2016-09-30T04:36:35.494Z,0.00
2016-09-30T04:37:36.005Z,0.00
2016-09-30T04:38:36.518Z,0.00
2016-09-30T04:39:37.037Z,0.00
2016-09-30T04:40:37.548Z,0.00
2016-09-30T04:41:38.061Z,0.00
2016-09-30T04:42:38.580Z,0.00
2016-09-30T04:43:39.084Z,0.00
2016-09-30T04:44:39.593Z,0.00
2016-09-30T04:45:40.105Z,0.00
2016-09-30T04:46:40.619Z,0.10
2016-09-30T04:47:41.154Z,0.40
2016-09-30T04:48:41.636Z,0.10
2016-09-30T04:49:42.165Z,0.20
2016-09-30T04:50:42.658Z,0.90
2016-09-30T04:51:43.168Z,0.70
2016-09-30T04:52:43.682Z,0.60
2016-09-30T04:53:44.194Z,0.40
2016-09-30T04:54:44.718Z,0.30
2016-09-30T04:55:45.218Z,0.10
2016-09-30T04:56:45.879Z,0.10
2016-09-30T04:57:46.392Z,0.00
2016-09-30T04:58:46.754Z,0.00
2016-09-30T04:59:47.270Z,0.00
2016-09-30T05:00:47.776Z,0.00
2016-09-30T05:01:48.285Z,0.00
2016-09-30T05:02:48.801Z,0.10
2016-09-30T05:03:49.313Z,0.00
2016-09-30T05:04:49.831Z,0.20
2016-09-30T05:05:50.343Z,0.10
2016-09-30T05:06:50.867Z,0.10
2016-09-30T05:07:51.376Z,0.10
2016-09-30T05:08:51.892Z,0.50
2016-09-30T05:09:52.404Z,0.80
2016-09-30T05:10:52.920Z,0.40
2016-09-30T05:11:53.436Z,0.20
2016-09-30T05:12:53.945Z,0.10
2016-09-30T05:13:54.458Z,0.30
2016-09-30T05:14:55.125Z,0.10
2016-09-30T05:15:55.484Z,0.00
2016-09-30T05:16:55.998Z,0.00
2016-09-30T05:17:56.515Z,0.10
2016-09-30T05:18:57.026Z,0.00
2016-09-30T05:19:57.546Z,0.00
2016-09-30T05:20:58.045Z,0.00
2016-09-30T05:21:58.555Z,0.00
2016-09-30T05:22:59.073Z,0.00
2016-09-30T05:23:59.585Z,0.10
2016-09-30T05:25:00.115Z,0.10
2016-09-30T05:26:00.602Z,0.00
2016-09-30T05:27:01.117Z,0.00
2016-09-30T05:28:01.625Z,0.00
2016-09-30T05:29:02.164Z,0.00
2016-09-30T05:30:02.801Z,0.00
2016-09-30T05:31:03.165Z,0.00
2016-09-30T05:32:03.678Z,0.00
2016-09-30T05:33:04.334Z,0.40
2016-09-30T05:34:04.699Z,0.30
2016-09-30T05:35:05.231Z,0.80
2016-09-30T05:36:05.723Z,1.00
2016-09-30T05:37:06.241Z,1.10
2016-09-30T05:38:06.751Z,0.60
2016-09-30T05:39:07.260Z,0.30
2016-09-30T05:40:07.771Z,0.30
2016-09-30T05:41:08.290Z,0.30
2016-09-30T05:42:08.790Z,0.00
2016-09-30T05:43:09.465Z,0.30
2016-09-30T05:44:09.818Z,0.00
2016-09-30T05:45:10.339Z,0.00
2016-09-30T05:46:10.856Z,0.60
2016-09-30T05:47:11.365Z,0.60
2016-09-30T05:48:11.875Z,0.00
2016-09-30T05:49:12.388Z,0.00
2016-09-30T05:50:12.900Z,0.00
2016-09-30T05:51:13.410Z,0.20
2016-09-30T05:52:13.924Z,0.50
2016-09-30T05:53:14.436Z,0.20
2016-09-30T05:54:14.947Z,0.00
2016-09-30T05:55:15.451Z,0.00
2016-09-30T05:56:15.961Z,0.20
2016-09-30T05:57:16.469Z,0.60
2016-09-30T05:58:16.983Z,0.60
2016-09-30T05:59:17.498Z,0.50
2016-09-30T06:00:18.008Z,0.30
2016-09-30T06:01:18.521Z,0.30
2016-09-30T06:02:19.039Z,0.10
2016-09-30T06:03:19.542Z,0.10
2016-09-30T06:04:20.057Z,0.20
2016-09-30T06:05:20.564Z,0.20
2016-09-30T06:06:21.075Z,0.60
2016-09-30T06:07:21.593Z,0.50
2016-09-30T06:08:22.101Z,0.30
2016-09-30T06:09:22.613Z,0.00
2016-09-30T06:10:23.121Z,0.10
2016-09-30T06:11:23.824Z,0.10
2016-09-30T06:12:24.150Z,0.10
2016-09-30T06:13:24.657Z,0.00
2016-09-30T06:14:25.166Z,0.30
2016-09-30T06:15:25.676Z,0.00
2016-09-30T06:16:26.197Z,0.00
2016-09-30T06:17:26.710Z,0.10
2016-09-30T06:18:27.233Z,0.10
2016-09-30T06:19:27.748Z,0.00
2016-09-30T06:20:28.268Z,0.00
2016-09-30T06:21:28.795Z,0.40
2016-09-30T06:22:29.322Z,0.60
2016-09-30T06:23:29.844Z,0.20
2016-09-30T06:24:30.367Z,0.10
2016-09-30T06:25:30.890Z,0.00
2016-09-30T06:26:31.412Z,0.50
2016-09-30T06:27:31.937Z,0.50
2016-09-30T06:28:32.455Z,0.60
2016-09-30T06:29:32.967Z,0.00
2016-09-30T06:30:33.483Z,0.20
2016-09-30T06:31:33.994Z,0.00
2016-09-30T06:32:34.505Z,0.20
2016-09-30T06:33:35.017Z,0.00
2016-09-30T06:34:35.526Z,0.00
2016-09-30T06:35:36.038Z,0.00
2016-09-30T06:36:36.547Z,0.30
2016-09-30T06:37:37.061Z,0.40
2016-09-30T06:38:37.570Z,0.20
2016-09-30T06:39:38.090Z,0.30
2016-09-30T06:40:38.599Z,0.20
2016-09-30T06:41:39.107Z,0.20
2016-09-30T06:42:39.622Z,0.50
2016-09-30T06:43:40.131Z,0.20
2016-09-30T06:44:40.645Z,0.00
2016-09-30T06:45:41.150Z,0.10
2016-09-30T06:46:41.664Z,0.70
2016-09-30T06:47:42.176Z,0.50
2016-09-30T06:48:42.720Z,0.10
2016-09-30T06:49:43.204Z,0.20
2016-09-30T06:50:43.716Z,0.40
2016-09-30T06:51:44.230Z,0.90
2016-09-30T06:52:44.745Z,1.00
2016-09-30T06:53:45.257Z,0.20
2016-09-30T06:54:45.767Z,0.20
2016-09-30T06:55:46.286Z,0.00
2016-09-30T06:56:46.804Z,0.00
2016-09-30T06:57:47.320Z,0.40
2016-09-30T06:58:47.830Z,0.40
2016-09-30T06:59:48.350Z,0.70
2016-09-30T07:00:48.860Z,0.20
2016-09-30T07:01:49.381Z,0.00
2016-09-30T07:02:49.885Z,0.30
2016-09-30T07:03:50.398Z,0.20
2016-09-30T07:04:50.908Z,0.00
2016-09-30T07:05:51.420Z,0.00
2016-09-30T07:07:52.441Z,0.10
2016-09-30T07:08:52.949Z,0.20
2016-09-30T07:09:53.459Z,0.10
2016-09-30T07:10:54.121Z,0.20
2016-09-30T07:11:54.497Z,0.20
2016-09-30T07:12:55.007Z,0.00
2016-09-30T07:13:55.656Z,0.30
2016-09-30T07:14:56.021Z,0.80
2016-09-30T07:15:56.531Z,0.80
2016-09-30T07:16:57.050Z,0.50
2016-09-30T07:17:57.563Z,1.40
2016-09-30T07:18:58.062Z,0.60
2016-09-30T07:19:58.578Z,0.80
2016-09-30T07:20:59.088Z,0.80
2016-09-30T07:21:59.606Z,0.50
2016-09-30T07:23:00.270Z,0.20
2016-09-30T07:24:00.627Z,0.80
2016-09-30T07:25:01.138Z,1.20
2016-09-30T07:26:01.646Z,0.70
2016-09-30T07:27:02.159Z,0.60
2016-09-30T07:28:02.672Z,0.20
2016-09-30T07:29:03.187Z,0.90
2016-09-30T07:30:03.708Z,0.70
2016-09-30T07:31:04.205Z,1.00
2016-09-30T07:32:04.716Z,0.90
2016-09-30T07:33:05.227Z,1.90
2016-09-30T07:34:05.895Z,1.80
2016-09-30T07:35:06.256Z,0.50
2016-09-30T07:36:06.928Z,0.70
2016-09-30T07:37:07.293Z,1.50
2016-09-30T07:38:07.802Z,1.30
2016-09-30T07:39:08.321Z,0.90
2016-09-30T07:40:08.829Z,1.70
2016-09-30T07:41:09.342Z,2.10
2016-09-30T07:42:09.850Z,0.90
2016-09-30T07:43:10.509Z,1.60
2016-09-30T07:44:10.875Z,1.10
2016-09-30T07:45:11.380Z,1.00
2016-09-30T07:46:11.899Z,0.70
2016-09-30T07:47:12.403Z,0.30
2016-09-30T07:48:12.916Z,0.20
2016-09-30T07:49:13.453Z,0.00
2016-09-30T07:50:13.938Z,0.60
2016-09-30T07:51:14.454Z,0.90
2016-09-30T07:52:14.966Z,0.50
2016-09-30T07:53:15.483Z,0.10
2016-09-30T07:54:15.989Z,0.00
2016-09-30T07:55:16.543Z,0.40
2016-09-30T07:56:17.016Z,0.50
2016-09-30T07:57:17.524Z,0.10
2016-09-30T07:58:18.043Z,0.70
2016-09-30T07:59:18.548Z,0.60
2016-09-30T08:00:19.057Z,1.40
2016-09-30T08:01:19.568Z,1.20
2016-09-30T08:02:20.080Z,0.10
2016-09-30T08:03:20.584Z,0.60
2016-09-30T08:04:21.095Z,1.00
2016-09-30T08:05:21.611Z,0.20
2016-09-30T08:06:22.125Z,0.50
2016-09-30T08:07:22.633Z,0.40
2016-09-30T08:08:23.140Z,0.30
2016-09-30T08:09:23.649Z,0.20
2016-09-30T08:10:24.166Z,0.60
2016-09-30T08:11:24.672Z,0.70
2016-09-30T08:12:25.185Z,0.20
2016-09-30T08:13:25.711Z,0.20
2016-09-30T08:14:26.372Z,0.10
2016-09-30T08:15:26.735Z,0.30
2016-09-30T08:16:27.252Z,0.60
2016-09-30T08:17:27.763Z,0.50
2016-09-30T08:18:28.424Z,0.70
2016-09-30T08:19:28.832Z,0.60
2016-09-30T08:20:29.304Z,0.70
2016-09-30T08:21:29.812Z,1.20
2016-09-30T08:22:30.329Z,1.30
2016-09-30T08:23:30.845Z,1.40
2016-09-30T08:24:31.352Z,0.80
2016-09-30T08:25:31.859Z,0.80
2016-09-30T08:26:32.373Z,1.00
2016-09-30T08:27:32.879Z,0.50
2016-09-30T08:28:33.392Z,0.50
2016-09-30T08:29:34.056Z,0.80
2016-09-30T08:30:34.417Z,0.30
2016-09-30T08:31:34.929Z,0.00
2016-09-30T08:32:35.438Z,1.10
2016-09-30T08:33:36.102Z,0.70
2016-09-30T08:34:36.465Z,0.80
2016-09-30T08:35:36.998Z,0.90
2016-09-30T08:36:37.796Z,0.50
2016-09-30T08:37:37.998Z,0.90
2016-09-30T08:38:38.510Z,0.90
2016-09-30T08:39:39.020Z,0.90
2016-09-30T08:40:39.531Z,0.90
2016-09-30T08:41:40.042Z,1.20
2016-09-30T08:42:40.558Z,1.60
2016-09-30T08:43:41.070Z,2.00
2016-09-30T08:44:41.584Z,1.70
2016-09-30T08:45:42.099Z,1.30
2016-09-30T08:46:42.619Z,0.90
2016-09-30T08:47:43.126Z,0.90
2016-09-30T08:48:43.647Z,1.00
2016-09-30T08:49:44.154Z,1.10
2016-09-30T08:50:44.669Z,2.10
2016-09-30T08:51:45.183Z,1.60
2016-09-30T08:52:45.711Z,1.40
2016-09-30T08:53:46.218Z,0.90
2016-09-30T08:54:46.752Z,0.80
2016-09-30T08:55:47.243Z,0.40
2016-09-30T08:56:47.756Z,0.40
2016-09-30T08:57:48.266Z,1.00
2016-09-30T08:58:48.783Z,0.70
2016-09-30T08:59:49.294Z,0.10
2016-09-30T09:00:49.807Z,0.20
2016-09-30T09:01:50.319Z,1.40
2016-09-30T09:02:50.979Z,1.40
2016-09-30T09:03:51.346Z,0.50
2016-09-30T09:04:51.867Z,1.60
2016-09-30T09:05:52.373Z,1.60
2016-09-30T09:06:52.881Z,0.80
2016-09-30T09:07:53.395Z,0.20
2016-09-30T09:08:53.905Z,0.90
2016-09-30T09:09:54.415Z,0.20
2016-09-30T09:10:54.947Z,1.00
2016-09-30T09:11:55.629Z,0.70
2016-09-30T09:12:55.951Z,0.00
2016-09-30T09:13:56.459Z,0.00
2016-09-30T09:14:56.972Z,0.00
2016-09-30T09:15:57.479Z,0.60
2016-09-30T09:16:57.994Z,0.00
2016-09-30T09:17:58.514Z,0.40
2016-09-30T09:18:59.016Z,0.00
2016-09-30T09:19:59.526Z,0.20
2016-09-30T09:21:00.043Z,0.00
2016-09-30T09:22:00.554Z,0.00
2016-09-30T09:23:01.091Z,0.40
2016-09-30T09:24:01.581Z,0.00
2016-09-30T09:25:02.092Z,0.50
2016-09-30T09:26:02.605Z,0.90
2016-09-30T09:27:03.122Z,0.40
2016-09-30T09:28:03.640Z,0.30
2016-09-30T09:29:04.158Z,0.60
2016-09-30T09:30:04.668Z,0.50
2016-09-30T09:31:05.190Z,0.20
2016-09-30T09:32:05.693Z,1.10
2016-09-30T09:33:06.348Z,1.30
2016-09-30T09:34:06.712Z,1.20
2016-09-30T09:35:07.235Z,0.90
2016-09-30T09:36:07.734Z,0.40
2016-09-30T09:37:08.246Z,0.30
2016-09-30T09:38:08.765Z,0.40
2016-09-30T09:39:09.275Z,0.60
2016-09-30T09:40:09.786Z,1.00
2016-09-30T09:41:10.292Z,0.70
2016-09-30T09:42:10.803Z,0.10
2016-09-30T09:43:11.312Z,0.10
2016-09-30T09:44:11.836Z,0.00
2016-09-30T09:45:12.364Z,0.40
2016-09-30T09:46:12.850Z,1.20
2016-09-30T09:47:13.360Z,0.50
2016-09-30T09:48:13.875Z,0.70
2016-09-30T09:49:14.387Z,1.10
2016-09-30T09:50:14.900Z,0.70
2016-09-30T09:51:15.442Z,0.80
2016-09-30T09:52:15.925Z,1.20
2016-09-30T09:53:16.434Z,1.00
2016-09-30T09:54:17.098Z,0.70
2016-09-30T09:55:17.453Z,0.50
2016-09-30T09:56:17.967Z,0.30
2016-09-30T09:57:18.481Z,0.00
2016-09-30T09:58:19.014Z,0.60
2016-09-30T09:59:19.496Z,0.00
2016-09-30T10:00:20.011Z,0.00
2016-09-30T10:01:20.524Z,0.40
2016-09-30T10:02:21.038Z,0.50
2016-09-30T10:03:21.552Z,0.40
2016-09-30T10:04:22.076Z,1.10
2016-09-30T10:05:22.617Z,1.80
2016-09-30T10:06:23.103Z,1.20
2016-09-30T10:07:23.616Z,1.20
2016-09-30T10:08:24.123Z,1.00
2016-09-30T10:09:24.639Z,0.90
2016-09-30T10:10:25.149Z,1.00
2016-09-30T10:11:25.666Z,1.70
2016-09-30T10:12:26.172Z,1.50
2016-09-30T10:13:26.680Z,0.90
2016-09-30T10:14:27.197Z,1.00
2016-09-30T10:15:27.703Z,0.40
2016-09-30T10:16:28.214Z,0.40
2016-09-30T10:17:28.728Z,0.70
2016-09-30T10:18:29.247Z,0.40
2016-09-30T10:19:29.758Z,0.00
2016-09-30T10:20:30.267Z,0.30
2016-09-30T10:21:30.782Z,1.50
2016-09-30T10:22:31.298Z,1.80
2016-09-30T10:23:31.806Z,1.00
2016-09-30T10:24:32.319Z,0.70
2016-09-30T10:25:32.860Z,0.40
2016-09-30T10:26:33.343Z,0.20
2016-09-30T10:27:34.015Z,0.30
2016-09-30T10:28:34.370Z,1.10
2016-09-30T10:29:34.887Z,1.40
2016-09-30T10:30:35.388Z,1.30
2016-09-30T10:31:35.904Z,1.00
2016-09-30T10:32:36.405Z,1.40
2016-09-30T10:33:36.930Z,1.20
2016-09-30T10:34:37.583Z,0.70
2016-09-30T10:35:37.940Z,0.30
2016-09-30T10:36:38.459Z,0.80
2016-09-30T10:37:39.112Z,0.80
2016-09-30T10:38:39.487Z,0.90
2016-09-30T10:39:39.986Z,0.10
2016-09-30T10:40:40.503Z,0.00
2016-09-30T10:41:41.104Z,0.00
2016-09-30T10:42:41.535Z,0.00
2016-09-30T10:43:42.050Z,0.00
2016-09-30T10:44:42.563Z,0.20
2016-09-30T10:45:43.076Z,0.00
2016-09-30T10:46:43.588Z,0.00
2016-09-30T10:47:44.102Z,0.00
2016-09-30T10:48:44.611Z,0.40
2016-09-30T10:49:45.122Z,0.80
2016-09-30T10:50:45.667Z,0.30
2016-09-30T10:51:46.151Z,0.20
2016-09-30T10:52:46.655Z,0.30
2016-09-30T10:53:47.171Z,0.60
2016-09-30T10:54:47.677Z,0.50
2016-09-30T10:55:48.195Z,0.50
2016-09-30T10:56:48.700Z,0.70
2016-09-30T10:57:49.212Z,1.30
2016-09-30T10:58:49.730Z,1.90
2016-09-30T10:59:50.237Z,0.40
2016-09-30T11:00:50.745Z,0.30
2016-09-30T11:01:51.257Z,0.30
2016-09-30T11:02:51.767Z,0.00
2016-09-30T11:03:52.275Z,0.00
2016-09-30T11:04:52.789Z,0.00
2016-09-30T11:05:53.299Z,0.00
2016-09-30T11:06:53.809Z,0.40
2016-09-30T11:07:54.325Z,0.00
2016-09-30T11:08:54.836Z,0.00
2016-09-30T11:09:55.357Z,0.00
2016-09-30T11:10:55.856Z,0.00
2016-09-30T11:11:56.369Z,0.10
2016-09-30T11:12:56.882Z,0.00
2016-09-30T11:13:57.394Z,0.00
2016-09-30T11:14:57.908Z,0.80
2016-09-30T11:15:58.424Z,0.70
2016-09-30T11:16:58.936Z,0.00
2016-09-30T11:17:59.459Z,0.00
2016-09-30T11:18:59.994Z,0.10
2016-09-30T11:20:00.514Z,0.00
2016-09-30T11:21:00.999Z,0.00
2016-09-30T11:22:01.516Z,0.50
2016-09-30T11:23:02.030Z,0.40
2016-09-30T11:24:02.550Z,0.20
2016-09-30T11:25:03.061Z,0.10
2016-09-30T11:26:03.566Z,0.10
2016-09-30T11:27:04.081Z,0.60
2016-09-30T11:28:04.586Z,1.20
2016-09-30T11:29:05.097Z,1.40
2016-09-30T11:30:05.607Z,0.60
2016-09-30T11:31:06.270Z,0.80
2016-09-30T11:32:06.782Z,1.20
2016-09-30T11:33:07.176Z,1.30
2016-09-30T11:34:07.656Z,1.30
2016-09-30T11:35:08.170Z,0.10
2016-09-30T11:36:08.684Z,0.30
2016-09-30T11:37:09.194Z,0.30
2016-09-30T11:38:09.707Z,0.90
2016-09-30T11:39:10.220Z,0.90
2016-09-30T11:40:10.733Z,0.40
2016-09-30T11:41:11.396Z,0.60
2016-09-30T11:42:11.759Z,0.80
2016-09-30T11:43:12.266Z,0.40
2016-09-30T11:44:12.781Z,0.40
2016-09-30T11:45:13.296Z,0.80
2016-09-30T11:46:13.807Z,0.70
2016-09-30T11:47:14.323Z,0.80
2016-09-30T11:48:16.630Z,1.20
2016-09-30T11:49:15.342Z,2.00
2016-09-30T11:50:15.856Z,0.90
2016-09-30T11:51:16.363Z,0.90
2016-09-30T11:52:16.878Z,0.80
2016-09-30T11:53:17.395Z,1.20
2016-09-30T11:54:17.909Z,1.00
2016-09-30T11:55:18.427Z,1.20
2016-09-30T11:56:18.943Z,1.40
2016-09-30T11:57:19.463Z,1.10
2016-09-30T11:58:19.973Z,1.30
2016-09-30T11:59:20.483Z,1.30
2016-09-30T12:00:20.995Z,0.70
2016-09-30T12:01:21.508Z,1.30
2016-09-30T12:02:22.025Z,2.00
2016-09-30T12:04:23.048Z,1.10
2016-09-30T12:05:23.559Z,1.10
2016-09-30T12:06:25.266Z,2.00
2016-09-30T12:07:24.574Z,2.30
2016-09-30T12:08:25.093Z,1.20
2016-09-30T12:09:25.598Z,1.40
2016-09-30T12:10:26.114Z,1.30
2016-09-30T12:11:26.624Z,1.90
2016-09-30T12:12:27.137Z,1.90
2016-09-30T12:13:27.645Z,1.60
2016-09-30T12:14:28.159Z,1.10
2016-09-30T12:15:28.669Z,1.20
2016-09-30T12:16:29.175Z,1.10
2016-09-30T12:17:29.684Z,1.00
2016-09-30T12:18:30.199Z,0.50
2016-09-30T12:19:30.712Z,0.90
2016-09-30T12:20:31.222Z,1.60
2016-09-30T12:21:31.734Z,1.20
2016-09-30T12:22:32.272Z,0.60
2016-09-30T12:23:32.752Z,1.20
2016-09-30T12:24:33.267Z,0.80
2016-09-30T12:25:33.795Z,1.00
2016-09-30T12:26:34.289Z,1.40
2016-09-30T12:27:34.817Z,1.40
2016-09-30T12:28:35.316Z,1.30
2016-09-30T12:29:35.832Z,1.30
2016-09-30T12:30:36.341Z,0.80
2016-09-30T12:31:36.859Z,0.70
2016-09-30T12:32:37.372Z,0.60
2016-09-30T12:33:37.894Z,1.20
2016-09-30T12:34:38.404Z,1.30
2016-09-30T12:35:38.914Z,1.30
2016-09-30T12:36:39.448Z,1.20
2016-09-30T12:37:39.952Z,2.00
2016-09-30T12:38:40.448Z,1.30
2016-09-30T12:39:40.954Z,1.20
2016-09-30T12:40:41.469Z,1.20
2016-09-30T12:41:41.977Z,1.20
2016-09-30T12:42:42.488Z,0.80
2016-09-30T12:43:43.022Z,1.20
2016-09-30T12:44:43.510Z,1.80
2016-09-30T12:45:44.027Z,1.20
2016-09-30T12:46:44.687Z,1.30
2016-09-30T12:47:45.049Z,1.10
2016-09-30T12:48:45.556Z,1.70
2016-09-30T12:49:46.069Z,1.70
2016-09-30T12:50:46.581Z,1.50
2016-09-30T12:51:47.095Z,1.10
2016-09-30T12:52:47.608Z,0.60
2016-09-30T12:53:48.117Z,1.50
2016-09-30T12:54:48.627Z,1.00
2016-09-30T12:55:49.137Z,1.00
2016-09-30T12:56:49.649Z,0.50
2016-09-30T12:57:50.161Z,0.20
2016-09-30T12:58:50.671Z,1.10
2016-09-30T12:59:51.187Z,0.80
2016-09-30T13:00:51.702Z,0.70
2016-09-30T13:01:52.204Z,0.30
2016-09-30T13:02:52.716Z,0.60
2016-09-30T13:03:53.227Z,0.70
2016-09-30T13:04:53.735Z,0.80
2016-09-30T13:05:54.243Z,0.40
2016-09-30T13:06:54.759Z,0.20
2016-09-30T13:07:55.271Z,0.50
2016-09-30T13:08:55.796Z,0.50
2016-09-30T13:09:56.298Z,0.60
2016-09-30T13:10:56.814Z,0.70
2016-09-30T13:11:57.326Z,0.70
2016-09-30T13:12:57.840Z,0.60
2016-09-30T13:13:58.347Z,0.90
2016-09-30T13:14:58.861Z,0.90
2016-09-30T13:15:59.373Z,1.30
2016-09-30T13:16:59.882Z,1.50
2016-09-30T13:18:00.395Z,1.00
2016-09-30T13:19:00.903Z,1.20
2016-09-30T13:20:01.565Z,1.40
2016-09-30T13:21:01.926Z,1.40
2016-09-30T13:22:02.438Z,0.80
2016-09-30T13:23:02.948Z,0.80
2016-09-30T13:24:03.460Z,0.60
2016-09-30T13:25:03.973Z,1.20
2016-09-30T13:26:04.480Z,0.90
2016-09-30T13:27:05.000Z,0.60